Time;durP1;ratioP1;P1;durP2;ratioP2;P2;SDS_P1;SDS_P2;PMS_P1;PMS_P2;Temp;Humidity;BMP_temperature;BMP_pressure;BME280_temperature;BME280_humidity;BME280_pressure;Samples;Min_cycle;Max_cycle;Signal;HPM_P1;HPM_P2
2021/04/14 00:00:17;;;;;;;0.57;0.40;;;;;;;22.50;29.87;95002.28;6104834;23;20100;-65
2021/04/14 00:02:42;;;;;;;0.73;0.45;;;;;;;22.50;29.68;95006.78;6103385;23;20005;-65
2021/04/14 00:05:08;;;;;;;0.93;0.40;;;;;;;22.49;29.74;95002.56;6152675;23;20006;-65
2021/04/14 00:07:35;;;;;;;2.60;0.50;;;;;;;22.45;29.88;94984.53;6177760;23;20065;-65
2021/04/14 00:10:01;;;;;;;1.55;0.30;;;;;;;22.48;29.57;94993.81;6153473;23;20057;-65
2021/04/14 00:12:26;;;;;;;0.77;0.50;;;;;;;22.48;29.53;94988.50;6152413;23;20009;-66
2021/04/14 00:14:53;;;;;;;1.30;0.32;;;;;;;22.50;29.65;94988.25;6128832;23;20005;-66
2021/04/14 00:17:18;;;;;;;0.57;0.30;;;;;;;22.48;29.56;94988.50;6153271;23;20302;-65
2021/04/14 00:19:43;;;;;;;0.75;0.30;;;;;;;22.48;29.82;94985.84;6177889;23;20001;-65
2021/04/14 00:22:09;;;;;;;0.70;0.32;;;;;;;22.49;29.53;94982.16;6153326;23;20036;-65
2021/04/14 00:24:36;;;;;;;0.50;0.30;;;;;;;22.49;29.77;94978.72;6154215;23;20006;-66
2021/04/14 00:27:03;;;;;;;0.77;0.55;;;;;;;22.49;29.78;94979.50;6153059;23;20124;-66
2021/04/14 00:29:28;;;;;;;0.38;0.30;;;;;;;22.48;29.87;94977.09;6152649;23;20001;-65
2021/04/14 00:31:54;;;;;;;0.50;0.40;;;;;;;22.48;29.62;94975.25;6152939;23;20006;-65
2021/04/14 00:34:20;;;;;;;0.32;0.30;;;;;;;22.49;29.85;94974.22;6177507;23;20096;-65
2021/04/14 00:36:48;;;;;;;1.27;0.40;;;;;;;22.48;29.77;94972.59;6177453;23;20006;-65
2021/04/14 00:39:23;;;;;;;0.50;0.30;;;;;;;22.49;29.94;94971.56;6127998;23;20012;-65
2021/04/14 00:41:49;;;;;;;0.50;0.40;;;;;;;22.48;29.69;94967.28;6152441;23;19997;-65
2021/04/14 00:44:16;;;;;;;0.60;0.40;;;;;;;22.50;29.95;94965.19;6127360;23;20088;-65
2021/04/14 00:46:42;;;;;;;0.77;0.35;;;;;;;22.44;29.84;94956.41;6153404;23;20009;-66
2021/04/14 00:49:07;;;;;;;0.80;0.50;;;;;;;22.49;29.57;94958.31;6202456;23;20001;-65
2021/04/14 00:51:33;;;;;;;0.50;0.35;;;;;;;22.49;29.58;94954.88;6104230;23;20032;-65
2021/04/14 00:54:00;;;;;;;0.32;0.30;;;;;;;22.48;29.73;94951.41;6154242;23;20013;-65
2021/04/14 00:56:25;;;;;;;0.85;0.40;;;;;;;22.49;29.81;94947.72;6130293;23;20044;-66
2021/04/14 00:58:51;;;;;;;0.85;0.43;;;;;;;22.46;29.42;94945.56;6204772;23;20009;-66
2021/04/14 01:01:16;;;;;;;0.40;0.40;;;;;;;22.49;29.43;94944.25;6179988;23;20005;-65
2021/04/14 01:03:43;;;;;;;0.75;0.47;;;;;;;22.50;29.79;94946.63;6153679;23;20009;-65
2021/04/14 01:06:15;;;;;;;0.65;0.50;;;;;;;22.50;29.89;94943.97;6204342;23;20010;-65
2021/04/14 01:08:40;;;;;;;0.80;0.30;;;;;;;22.43;29.72;94924.91;6154399;23;20016;-65
2021/04/14 01:11:07;;;;;;;0.60;0.30;;;;;;;22.47;29.89;94935.78;6179526;23;20005;-66
2021/04/14 01:13:34;;;;;;;1.38;0.40;;;;;;;22.46;29.87;94927.00;6129641;23;20013;-65
2021/04/14 01:16:00;;;;;;;0.52;0.25;;;;;;;22.48;29.60;94930.19;6130149;23;20029;-65
2021/04/14 01:18:32;;;;;;;0.82;0.30;;;;;;;22.50;29.67;94932.59;6154119;23;20011;-66
2021/04/14 01:20:57;;;;;;;0.47;0.38;;;;;;;22.49;29.61;94931.00;6153968;23;20025;-65
2021/04/14 01:23:25;;;;;;;1.10;0.30;;;;;;;22.48;29.57;94921.44;6179294;23;20012;-66
2021/04/14 01:25:50;;;;;;;1.02;0.40;;;;;;;22.46;29.71;94921.72;6154556;23;20008;-66
2021/04/14 01:28:23;;;;;;;0.50;0.30;;;;;;;22.51;29.78;94923.59;6153907;23;20080;-65
2021/04/14 01:30:50;;;;;;;0.55;0.32;;;;;;;22.48;29.47;94929.41;6129710;23;20121;-65
2021/04/14 01:33:18;;;;;;;0.55;0.30;;;;;;;22.48;29.72;94926.75;6129492;23;20092;-65
2021/04/14 01:35:44;;;;;;;1.60;0.40;;;;;;;22.46;29.61;94921.72;6128971;23;20009;-65
2021/04/14 01:38:09;;;;;;;1.05;0.30;;;;;;;22.46;29.63;94919.06;6154699;23;20067;-65
2021/04/14 01:40:35;;;;;;;0.80;0.30;;;;;;;22.47;29.71;94917.22;6204643;23;20005;-65
2021/04/14 01:43:05;;;;;;;0.38;0.30;;;;;;;22.48;29.70;94914.28;6129462;23;20041;-65
2021/04/14 01:45:32;;;;;;;1.52;0.40;;;;;;;22.48;29.79;94926.75;6178556;23;20083;-66
2021/04/14 01:47:58;;;;;;;0.75;0.43;;;;;;;22.47;30.05;94920.66;6154228;23;20076;-65
2021/04/14 01:50:24;;;;;;;0.82;0.30;;;;;;;22.48;29.44;94921.44;6129735;23;20016;-65
2021/04/14 01:52:52;;;;;;;0.32;0.32;;;;;;;22.48;29.81;94916.94;6179036;23;20009;-65
2021/04/14 01:55:18;;;;;;;0.43;0.30;;;;;;;22.47;29.74;94915.38;6153582;23;20050;-65
2021/04/14 01:57:46;;;;;;;0.63;0.30;;;;;;;22.46;29.58;94911.09;6178082;23;20087;-65
2021/04/14 02:00:22;;;;;;;0.32;0.22;;;;;;;22.46;29.49;94908.47;6155149;23;20005;-65
2021/04/14 02:02:50;;;;;;;0.40;0.32;;;;;;;22.47;29.58;94907.41;6152629;23;20052;-65
2021/04/14 02:05:23;;;;;;;0.30;0.30;;;;;;;22.49;29.24;94901.84;6153013;23;20009;-65
2021/04/14 02:07:49;;;;;;;0.30;0.30;;;;;;;22.47;29.50;94896.81;6177484;23;20032;-66
2021/04/14 02:10:15;;;;;;;0.47;0.30;;;;;;;22.45;29.63;94899.72;6154226;23;20097;-65
2021/04/14 02:12:41;;;;;;;0.30;0.30;;;;;;;22.48;29.50;94902.91;6153646;23;20017;-65
2021/04/14 02:15:15;;;;;;;0.25;0.25;;;;;;;22.48;29.66;94895.75;6178431;23;19998;-65
2021/04/14 02:17:40;;;;;;;0.52;0.30;;;;;;;22.48;29.65;94897.59;6153704;23;20036;-65
2021/04/14 02:20:08;;;;;;;0.40;0.30;;;;;;;22.48;29.52;94895.75;6104581;23;20005;-65
2021/04/14 02:22:34;;;;;;;0.28;0.20;;;;;;;22.45;29.72;94883.81;6154509;23;20060;-65
2021/04/14 02:25:03;;;;;;;0.40;0.30;;;;;;;22.47;29.58;94890.72;6129185;23;20088;-65
2021/04/14 02:27:28;;;;;;;0.40;0.30;;;;;;;22.43;29.54;94885.16;6178685;23;20006;-65
2021/04/14 02:29:54;;;;;;;0.63;0.30;;;;;;;22.46;29.56;94884.59;6153772;23;20077;-65
2021/04/14 02:32:20;;;;;;;0.20;0.20;;;;;;;22.48;29.49;94881.69;6129446;23;20001;-65
2021/04/14 02:34:45;;;;;;;0.30;0.30;;;;;;;22.46;29.55;94884.59;6158084;23;20001;-65
2021/04/14 02:37:10;;;;;;;0.38;0.30;;;;;;;22.45;29.61;94883.81;6109458;23;20012;-65
2021/04/14 02:39:36;;;;;;;0.30;0.30;;;;;;;22.47;29.50;94886.22;6134503;23;20012;-65
2021/04/14 02:42:01;;;;;;;0.30;0.30;;;;;;;22.48;29.47;94887.00;6133898;23;20047;-65
2021/04/14 02:44:27;;;;;;;0.47;0.30;;;;;;;22.47;29.52;94870.31;6158460;23;20064;-65
2021/04/14 02:46:53;;;;;;;0.40;0.30;;;;;;;22.47;29.90;94886.22;6133914;23;20055;-65
2021/04/14 02:49:19;;;;;;;0.65;0.22;;;;;;;22.48;29.62;94884.34;6158727;23;20040;-65
2021/04/14 02:51:45;;;;;;;0.30;0.30;;;;;;;22.47;29.40;94872.19;6182392;23;20009;-65
2021/04/14 02:54:10;;;;;;;0.30;0.30;;;;;;;22.47;29.42;94878.25;6183182;23;20071;-65
2021/04/14 02:56:36;;;;;;;0.22;0.22;;;;;;;22.47;29.82;94867.66;6133911;23;20013;-65
2021/04/14 02:59:02;;;;;;;0.40;0.30;;;;;;;22.46;29.55;94863.41;6183187;23;20012;-65
2021/04/14 03:01:27;;;;;;;0.30;0.28;;;;;;;22.45;29.38;94869.78;6134329;23;20001;-65
2021/04/14 03:03:53;;;;;;;0.30;0.30;;;;;;;22.45;29.72;94867.13;6132483;23;20076;-65
2021/04/14 03:06:19;;;;;;;0.32;0.30;;;;;;;22.45;29.67;94867.13;6207897;23;20005;-66
2021/04/14 03:08:46;;;;;;;0.30;0.30;;;;;;;22.47;29.73;94864.22;6133336;23;20005;-65
2021/04/14 03:11:11;;;;;;;0.30;0.30;;;;;;;22.46;29.55;94866.06;6133396;23;20027;-65
2021/04/14 03:13:37;;;;;;;0.30;0.30;;;;;;;22.48;29.71;94865.81;6133703;23;20099;-66
2021/04/14 03:16:05;;;;;;;0.43;0.30;;;;;;;22.45;29.49;94857.31;6158561;23;20112;-65
2021/04/14 03:18:31;;;;;;;0.40;0.30;;;;;;;22.44;29.47;94854.91;6158375;23;20012;-65
2021/04/14 03:20:57;;;;;;;0.40;0.40;;;;;;;22.45;29.74;94844.06;6133525;23;20290;-65
2021/04/14 03:23:22;;;;;;;0.63;0.28;;;;;;;22.45;29.62;94856.53;6134082;23;20008;-65
2021/04/14 03:25:48;;;;;;;0.22;0.22;;;;;;;22.46;29.46;94852.81;6108979;23;20063;-66
2021/04/14 03:28:13;;;;;;;0.38;0.30;;;;;;;22.47;29.59;94853.63;6158112;23;20029;-65
2021/04/14 03:30:40;;;;;;;0.68;0.38;;;;;;;22.44;29.74;94846.97;6133515;23;20016;-66
2021/04/14 03:33:08;;;;;;;0.52;0.30;;;;;;;22.48;29.82;94841.94;6133633;23;20080;-65
2021/04/14 03:35:33;;;;;;;0.20;0.20;;;;;;;22.46;29.88;94839.56;6132915;23;20005;-65
2021/04/14 03:37:59;;;;;;;0.32;0.30;;;;;;;22.45;29.75;94840.63;6183607;23;20024;-65
2021/04/14 03:40:24;;;;;;;0.40;0.30;;;;;;;22.44;29.63;94828.44;6133259;23;20001;-65
2021/04/14 03:42:52;;;;;;;0.20;0.20;;;;;;;22.47;29.58;94848.31;6133632;23;20008;-65
2021/04/14 03:45:19;;;;;;;0.40;0.38;;;;;;;22.46;29.42;94836.91;6158045;23;20013;-66
2021/04/14 03:47:44;;;;;;;0.20;0.20;;;;;;;22.46;29.45;94839.56;6133924;23;20040;-66
2021/04/14 03:50:14;;;;;;;0.40;0.30;;;;;;;22.48;29.73;94834.00;6133505;23;20005;-65
2021/04/14 03:52:39;;;;;;;0.30;0.30;;;;;;;22.46;29.44;94839.56;6134027;23;20040;-65
2021/04/14 03:55:07;;;;;;;0.30;0.30;;;;;;;22.45;29.47;94832.69;6156030;23;20028;-65
2021/04/14 03:57:35;;;;;;;0.30;0.30;;;;;;;22.42;29.65;94822.59;6109088;23;20264;-66
2021/04/14 04:00:00;;;;;;;0.20;0.20;;;;;;;22.44;29.73;94831.06;6133468;23;20005;-65
2021/04/14 04:02:26;;;;;;;0.25;0.22;;;;;;;22.45;29.74;94830.03;6133589;23;20079;-65
2021/04/14 04:04:51;;;;;;;0.40;0.30;;;;;;;22.45;29.59;94833.47;6133087;23;20001;-65
2021/04/14 04:07:17;;;;;;;0.30;0.30;;;;;;;22.46;29.55;94834.25;6133638;23;20012;-65
2021/04/14 04:09:42;;;;;;;0.30;0.30;;;;;;;22.44;29.56;94828.44;6158186;23;20088;-65
2021/04/14 04:12:10;;;;;;;0.35;0.35;;;;;;;22.46;29.46;94828.97;6157369;23;19997;-65
2021/04/14 04:14:45;;;;;;;0.30;0.30;;;;;;;22.46;29.68;94821.00;6109186;23;20002;-65
2021/04/14 04:17:12;;;;;;;0.40;0.30;;;;;;;22.45;29.72;94822.09;6158531;23;20015;-65
2021/04/14 04:19:38;;;;;;;0.30;0.30;;;;;;;22.43;29.42;94817.03;6133540;23;20005;-65
2021/04/14 04:22:04;;;;;;;0.25;0.25;;;;;;;22.45;29.54;94819.44;6158399;23;20009;-65
2021/04/14 04:24:30;;;;;;;0.22;0.22;;;;;;;22.46;29.51;94823.66;6132475;23;20008;-65
2021/04/14 04:27:00;;;;;;;0.20;0.20;;;;;;;22.49;29.52;94825.00;6157701;23;20009;-65
2021/04/14 04:29:26;;;;;;;0.20;0.20;;;;;;;22.46;29.78;94818.34;6186216;23;20032;-65
2021/04/14 04:31:53;;;;;;;0.30;0.30;;;;;;;22.45;29.43;94824.72;6135048;23;20058;-65
2021/04/14 04:34:19;;;;;;;0.32;0.30;;;;;;;22.43;29.57;94810.94;6134294;23;20001;-66
2021/04/14 04:36:44;;;;;;;0.38;0.30;;;;;;;22.45;29.51;94822.09;6129600;23;20018;-65
2021/04/14 04:39:10;;;;;;;0.28;0.20;;;;;;;22.46;29.46;94818.34;6127817;23;20023;-65
2021/04/14 04:41:35;;;;;;;0.30;0.30;;;;;;;22.46;29.84;94821.00;6128869;23;20013;-66
2021/04/14 04:44:01;;;;;;;0.40;0.30;;;;;;;22.42;29.60;94807.47;6105034;23;20006;-65
2021/04/14 04:46:26;;;;;;;0.20;0.20;;;;;;;22.43;29.38;94819.69;6153424;23;20009;-66
2021/04/14 04:48:52;;;;;;;0.63;0.30;;;;;;;22.45;29.53;94822.09;6153275;23;20037;-66
2021/04/14 04:51:18;;;;;;;0.68;0.30;;;;;;;22.47;29.66;94827.13;6128906;23;20017;-65
2021/04/14 04:53:43;;;;;;;0.30;0.30;;;;;;;22.42;29.46;94814.63;6154898;23;20013;-66
2021/04/14 04:56:08;;;;;;;0.20;0.20;;;;;;;22.45;29.45;94819.44;6129970;23;20036;-65
2021/04/14 04:58:34;;;;;;;0.40;0.22;;;;;;;22.44;29.42;94817.81;6129743;23;20009;-65
2021/04/14 05:01:00;;;;;;;0.20;0.20;;;;;;;22.47;29.39;94827.13;6154553;23;20092;-66
2021/04/14 05:03:31;;;;;;;0.65;0.30;;;;;;;22.45;29.44;94828.16;6105409;23;20001;-66
2021/04/14 05:05:58;;;;;;;0.20;0.20;;;;;;;22.47;29.63;94827.91;6152834;23;20013;-66
2021/04/14 05:08:23;;;;;;;0.30;0.30;;;;;;;22.43;29.59;94825.00;6127503;23;20013;-65
2021/04/14 05:10:54;;;;;;;0.30;0.30;;;;;;;22.47;29.73;94833.22;6152802;23;20084;-65
2021/04/14 05:13:24;;;;;;;0.30;0.25;;;;;;;22.29;29.64;94802.69;6153269;23;20006;-65
2021/04/14 05:15:50;;;;;;;0.50;0.30;;;;;;;22.45;29.50;94828.16;6178018;23;20067;-65
2021/04/14 05:18:16;;;;;;;0.30;0.30;;;;;;;22.45;29.38;94830.03;6127587;23;20009;-65
2021/04/14 05:20:42;;;;;;;0.90;0.20;;;;;;;22.45;29.37;94832.69;6128950;23;20014;-65
2021/04/14 05:23:08;;;;;;;0.20;0.20;;;;;;;22.42;29.52;94826.03;6154052;23;20068;-65
2021/04/14 05:25:35;;;;;;;0.32;0.30;;;;;;;22.44;29.51;94831.06;6154116;23;20001;-65
2021/04/14 05:28:06;;;;;;;0.20;0.20;;;;;;;22.46;29.74;94839.56;6152970;23;20005;-65
2021/04/14 05:30:38;;;;;;;0.28;0.28;;;;;;;22.41;29.60;94835.06;6152974;23;20005;-67
2021/04/14 05:33:05;;;;;;;0.50;0.30;;;;;;;22.44;29.45;94839.03;6151821;23;20009;-67
2021/04/14 05:35:30;;;;;;;0.50;0.20;;;;;;;22.45;29.04;94830.03;6153660;23;20060;-67
2021/04/14 05:37:56;;;;;;;0.30;0.30;;;;;;;22.45;29.51;94840.63;6129384;23;20238;-67
2021/04/14 05:40:23;;;;;;;0.30;0.20;;;;;;;22.47;29.64;94835.06;6152421;23;20036;-67
2021/04/14 05:42:48;;;;;;;0.20;0.20;;;;;;;22.45;29.64;94840.63;6177975;23;20017;-67
2021/04/14 05:45:21;;;;;;;0.30;0.30;;;;;;;22.47;29.39;94832.44;6153248;23;20006;-68
2021/04/14 05:47:47;;;;;;;0.20;0.20;;;;;;;22.44;29.81;94837.16;6153674;23;20001;-67
2021/04/14 05:50:14;;;;;;;0.30;0.30;;;;;;;22.45;29.53;94838.78;6128562;23;20017;-67
2021/04/14 05:52:42;;;;;;;0.30;0.28;;;;;;;22.41;29.72;94835.06;6144029;23;20021;-67
2021/04/14 05:55:10;;;;;;;0.20;0.20;;;;;;;22.44;29.45;94836.38;6076306;23;20061;-67
2021/04/14 05:57:36;;;;;;;0.68;0.40;;;;;;;22.42;29.64;94838.50;6075723;23;19998;-67
2021/04/14 06:00:02;;;;;;;0.20;0.20;;;;;;;22.43;29.39;94840.09;6075927;23;20006;-67
2021/04/14 06:02:29;;;;;;;0.30;0.30;;;;;;;22.45;29.44;94841.41;6051337;23;20030;-67
2021/04/14 06:04:56;;;;;;;0.30;0.20;;;;;;;22.44;29.70;94839.81;6099236;23;20084;-67
2021/04/14 06:07:24;;;;;;;0.30;0.30;;;;;;;22.41;29.69;94836.91;6125230;23;20010;-67
2021/04/14 06:09:49;;;;;;;0.20;0.20;;;;;;;22.43;29.41;94840.09;6124270;23;20077;-67
2021/04/14 06:12:15;;;;;;;0.20;0.20;;;;;;;22.42;29.64;94846.44;6074796;23;20057;-67
2021/04/14 06:14:41;;;;;;;0.20;0.20;;;;;;;22.42;29.66;94852.53;6075662;23;20030;-67
2021/04/14 06:17:06;;;;;;;0.20;0.20;;;;;;;22.42;29.40;94847.22;6124094;23;20037;-67
2021/04/14 06:19:32;;;;;;;0.30;0.30;;;;;;;22.43;29.76;94850.69;6100833;23;20002;-68
2021/04/14 06:21:58;;;;;;;0.35;0.35;;;;;;;22.43;29.38;94840.88;6075708;23;20002;-72
2021/04/14 06:24:25;;;;;;;0.30;0.30;;;;;;;22.40;29.70;94835.31;6125938;23;20006;-68
2021/04/14 06:26:53;;;;;;;0.90;0.45;;;;;;;22.43;29.47;94845.41;6099301;23;20002;-67
2021/04/14 06:29:19;;;;;;;0.40;0.30;;;;;;;22.43;29.54;94853.34;6100047;23;20077;-67
2021/04/14 06:31:44;;;;;;;0.45;0.40;;;;;;;22.43;29.71;94853.34;6098783;23;20013;-68
2021/04/14 06:34:18;;;;;;;0.30;0.30;;;;;;;22.42;29.54;94857.84;6098879;23;20088;-67
2021/04/14 06:36:45;;;;;;;0.35;0.35;;;;;;;22.40;29.59;94844.03;6099975;23;20033;-68
2021/04/14 06:39:11;;;;;;;0.43;0.30;;;;;;;22.41;29.42;94850.94;6099513;23;20006;-67
2021/04/14 06:44:49;;;;;;;0.38;0.32;;;;;;;22.46;29.67;94855.47;6103365;23;20019;-68
2021/04/14 06:47:29;;;;;;;0.75;0.30;;;;;;;22.44;29.41;94853.06;6124125;23;20054;-67
2021/04/14 06:50:11;;;;;;;0.30;0.30;;;;;;;22.46;29.53;94852.81;6124162;23;20037;-68
2021/04/14 06:52:43;;;;;;;0.30;0.20;;;;;;;22.43;29.46;94850.69;6099785;23;20010;-68
2021/04/14 06:55:13;;;;;;;0.55;0.30;;;;;;;22.41;29.39;94848.31;6099609;23;20010;-68
2021/04/14 06:57:41;;;;;;;0.30;0.30;;;;;;;22.39;29.52;94842.47;6099646;23;20012;-67
2021/04/14 07:00:35;;;;;;;0.32;0.30;;;;;;;22.42;29.68;94844.56;6099166;23;20028;-68
2021/04/14 07:03:10;;;;;;;0.30;0.30;;;;;;;22.44;29.59;94849.63;6099815;23;20013;-68
2021/04/14 07:05:41;;;;;;;0.30;0.30;;;;;;;22.40;29.54;94841.41;6122531;23;20009;-68
2021/04/14 07:08:23;;;;;;;0.30;0.30;;;;;;;22.44;29.49;94844.31;6098963;23;20008;-68
2021/04/14 07:10:51;;;;;;;0.32;0.30;;;;;;;22.40;29.29;94843.25;6077128;23;20006;-68
2021/04/14 07:13:19;;;;;;;0.30;0.30;;;;;;;22.39;29.44;94839.81;6099132;23;20033;-68
2021/04/14 07:15:45;;;;;;;0.25;0.25;;;;;;;22.40;29.38;94849.34;6098734;23;20085;-68
2021/04/14 07:18:32;;;;;;;0.65;0.40;;;;;;;22.44;29.34;94849.63;6098969;23;20009;-68
2021/04/14 07:21:23;;;;;;;0.30;0.30;;;;;;;22.43;29.52;94848.06;6121328;23;20097;-68
2021/04/14 07:23:54;;;;;;;0.30;0.30;;;;;;;22.42;29.55;94849.88;6098487;23;20013;-68
2021/04/14 07:26:44;;;;;;;0.30;0.30;;;;;;;22.43;29.57;94848.84;6098640;23;20014;-67
2021/04/14 07:29:21;;;;;;;0.40;0.40;;;;;;;22.43;29.46;94853.34;6098692;23;20013;-68
2021/04/14 07:32:10;;;;;;;0.30;0.30;;;;;;;22.43;29.46;94842.75;6123394;23;20260;-68
2021/04/14 07:34:40;;;;;;;0.30;0.30;;;;;;;22.39;29.43;94852.25;6150864;23;20014;-68
2021/04/14 07:37:09;;;;;;;0.22;0.22;;;;;;;22.38;29.34;94848.81;6127471;23;20052;-68
2021/04/14 07:39:35;;;;;;;0.38;0.35;;;;;;;22.40;29.49;94854.66;6151271;23;20016;-68
2021/04/14 07:42:08;;;;;;;0.57;0.30;;;;;;;22.38;29.38;94851.47;6176297;23;20025;-67
2021/04/14 07:44:42;;;;;;;0.40;0.30;;;;;;;22.42;29.15;94852.53;6177033;23;20001;-68
2021/04/14 07:47:09;;;;;;;0.90;0.32;;;;;;;22.40;29.21;94848.56;6153130;23;20002;-67
2021/04/14 07:49:35;;;;;;;0.22;0.22;;;;;;;22.39;29.50;94853.06;6153043;23;20005;-68
2021/04/14 07:52:00;;;;;;;0.32;0.30;;;;;;;22.41;29.52;94850.16;6152965;23;20060;-67
2021/04/14 07:54:41;;;;;;;0.38;0.38;;;;;;;22.42;29.49;94841.94;6177738;23;20068;-67
2021/04/14 07:57:07;;;;;;;2.90;0.50;;;;;;;22.41;29.23;94847.50;6176441;23;20028;-67
2021/04/14 07:59:36;;;;;;;1.15;0.40;;;;;;;22.41;29.30;94844.88;6152626;23;20054;-68
2021/04/14 08:02:11;;;;;;;0.50;0.30;;;;;;;22.45;29.41;94844.06;6153730;23;20020;-67
2021/04/14 08:04:38;;;;;;;0.57;0.30;;;;;;;22.43;29.30;94843.53;6153730;23;20036;-67
2021/04/14 08:07:18;;;;;;;0.50;0.40;;;;;;;22.45;29.15;94845.94;6154231;23;20009;-65
2021/04/14 08:09:47;;;;;;;;;;;;;;;22.48;29.15;94844.59;6154558;23;20001;-65
2021/04/14 08:12:15;;;;;;;0.57;0.25;;;;;;;22.46;29.22;94844.84;6155960;23;19924;-65
2021/04/14 08:14:42;;;;;;;0.38;0.32;;;;;;;22.43;29.17;94840.09;6130326;23;20009;-65
2021/04/14 08:17:14;;;;;;;0.68;0.20;;;;;;;22.46;29.14;94831.59;6175233;23;20096;-66
2021/04/14 08:19:39;;;;;;;0.30;0.30;;;;;;;22.43;29.48;94837.44;6153255;23;20015;-65
2021/04/14 08:22:15;;;;;;;0.25;0.22;;;;;;;22.44;29.22;94833.72;6130137;23;20001;-65
2021/04/14 08:24:52;;;;;;;0.88;0.30;;;;;;;22.44;29.20;94834.50;6178977;23;20012;-65
2021/04/14 08:27:19;;;;;;;0.30;0.30;;;;;;;22.40;29.39;94828.16;6129612;23;20095;-65
2021/04/14 08:29:49;;;;;;;0.30;0.30;;;;;;;22.42;29.30;94827.88;6153976;23;20100;-66
2021/04/14 08:32:15;;;;;;;0.30;0.20;;;;;;;22.41;28.86;94826.31;6129530;23;20024;-65
2021/04/14 08:34:43;;;;;;;1.75;0.43;;;;;;;22.42;29.36;94826.03;6128634;23;20008;-65
2021/04/14 08:37:08;;;;;;;0.30;0.30;;;;;;;22.40;29.24;94822.06;6129019;23;20001;-66
2021/04/14 08:39:33;;;;;;;0.20;0.20;;;;;;;22.42;29.34;94827.88;6179125;23;20008;-65
2021/04/14 08:42:07;;;;;;;0.20;0.20;;;;;;;22.42;29.01;94815.44;6178631;23;20005;-65
2021/04/14 08:44:34;;;;;;;0.20;0.20;;;;;;;22.40;29.28;94811.47;6153881;23;20009;-65
2021/04/14 08:47:11;;;;;;;0.68;0.30;;;;;;;22.43;29.22;94816.25;6153670;23;20087;-65
2021/04/14 08:49:36;;;;;;;0.47;0.30;;;;;;;22.38;28.99;94810.94;6154241;23;20080;-66
2021/04/14 08:52:02;;;;;;;0.30;0.30;;;;;;;22.40;29.34;94827.34;6152446;23;20081;-65
2021/04/14 08:54:32;;;;;;;0.20;0.20;;;;;;;22.42;29.31;94822.59;6129126;23;20005;-65
2021/04/14 08:56:59;;;;;;;0.38;0.30;;;;;;;22.41;29.34;94815.72;6153654;23;19998;-66
2021/04/14 08:59:25;;;;;;;0.30;0.30;;;;;;;22.41;29.26;94818.38;6129768;23;20009;-65
2021/04/14 09:01:51;;;;;;;0.50;0.20;;;;;;;22.40;29.40;94809.59;6153721;23;20005;-66
2021/04/14 09:04:17;;;;;;;0.38;0.20;;;;;;;22.39;29.16;94821.28;6128392;23;20056;-65
2021/04/14 09:06:44;;;;;;;0.30;0.20;;;;;;;22.42;29.25;94830.53;6127744;23;20002;-65
2021/04/14 09:09:16;;;;;;;0.30;0.30;;;;;;;22.44;29.18;94820.47;6127956;23;20001;-65
2021/04/14 09:11:44;;;;;;;0.88;0.20;;;;;;;22.39;29.37;94820.44;6127700;23;20006;-66
2021/04/14 09:14:24;;;;;;;0.32;0.30;;;;;;;22.42;29.19;94814.63;6153328;23;20021;-65
2021/04/14 09:16:58;;;;;;;0.32;0.30;;;;;;;22.42;29.34;94819.94;6177520;23;20009;-65
2021/04/14 09:19:33;;;;;;;0.20;0.20;;;;;;;22.44;29.23;94820.47;6106720;23;20071;-65
2021/04/14 09:22:04;;;;;;;0.45;0.28;;;;;;;22.43;29.07;94817.03;6100443;23;20006;-65
2021/04/14 09:24:32;;;;;;;0.30;0.30;;;;;;;22.42;29.06;94815.44;6125526;23;20010;-65
2021/04/14 09:26:58;;;;;;;0.20;0.20;;;;;;;22.39;29.14;94815.16;6149171;23;20006;-65
2021/04/14 09:29:33;;;;;;;0.30;0.30;;;;;;;22.38;29.26;94806.41;6124326;23;20009;-66
2021/04/14 09:32:07;;;;;;;0.40;0.20;;;;;;;22.41;29.28;94818.38;6098712;23;20057;-65
2021/04/14 09:34:39;;;;;;;0.22;0.20;;;;;;;22.39;29.11;94815.97;6099082;23;20060;-65
2021/04/14 09:37:10;;;;;;;0.20;0.20;;;;;;;22.40;29.23;94816.75;6123454;23;20057;-65
2021/04/14 09:39:51;;;;;;;0.35;0.30;;;;;;;22.43;29.14;94821.56;6124572;23;20006;-65
2021/04/14 09:42:29;;;;;;;0.20;0.20;;;;;;;22.39;29.24;94813.31;6078062;23;20006;-66
2021/04/14 09:44:56;;;;;;;0.30;0.30;;;;;;;22.39;29.17;94804.56;6101615;23;20076;-65
2021/04/14 09:47:28;;;;;;;0.20;0.20;;;;;;;22.42;29.22;94810.13;6099050;23;20005;-66
2021/04/14 09:49:56;;;;;;;0.20;0.20;;;;;;;22.40;29.24;94814.91;6124078;23;20085;-65
2021/04/14 09:52:32;;;;;;;0.20;0.20;;;;;;;22.41;29.18;94807.78;6124503;23;20009;-66
2021/04/14 09:55:13;;;;;;;0.40;0.30;;;;;;;22.43;28.83;94817.03;6098102;23;20089;-65
2021/04/14 09:57:41;;;;;;;0.70;0.20;;;;;;;22.35;29.20;94803.50;6076265;23;20018;-66
2021/04/14 10:00:15;;;;;;;0.40;0.40;;;;;;;22.42;29.01;94804.03;6100671;23;20002;-66
2021/04/14 10:02:40;;;;;;;0.25;0.25;;;;;;;22.38;28.96;94802.97;6076215;23;20002;-65
2021/04/14 10:05:07;;;;;;;0.28;0.20;;;;;;;22.39;29.09;94800.06;6099639;23;20006;-65
2021/04/14 10:07:35;;;;;;;1.23;0.22;;;;;;;22.36;29.00;94799.78;6099291;23;20093;-66
2021/04/14 10:10:18;;;;;;;0.20;0.20;;;;;;;22.42;28.99;94809.34;6100010;23;20012;-65
2021/04/14 10:12:44;;;;;;;0.20;0.20;;;;;;;22.38;29.20;94802.97;6102457;23;20040;-65
2021/04/14 10:15:10;;;;;;;1.15;0.20;;;;;;;22.38;29.06;94798.47;6075334;23;20006;-65
2021/04/14 10:17:36;;;;;;;0.63;0.25;;;;;;;22.39;28.95;94793.97;6099161;23;20009;-65
2021/04/14 10:20:24;;;;;;;0.40;0.10;;;;;;;22.43;28.89;94800.34;6098611;23;20009;-65
2021/04/14 10:22:50;;;;;;;0.20;0.20;;;;;;;22.37;29.04;94791.59;6102765;23;20013;-66
2021/04/14 10:25:30;;;;;;;0.28;0.28;;;;;;;22.40;29.07;94791.06;6074887;23;20001;-65
2021/04/14 10:28:28;;;;;;;0.50;0.20;;;;;;;22.41;28.82;94786.56;6124410;23;20006;-65
2021/04/14 10:31:00;;;;;;;0.20;0.20;;;;;;;22.43;29.17;94787.09;6124823;23;20037;-65
2021/04/14 10:33:26;;;;;;;0.17;0.17;;;;;;;22.38;28.83;94782.56;6124095;23;20066;-65
2021/04/14 10:35:51;;;;;;;0.45;0.20;;;;;;;22.40;28.94;94779.66;6123568;23;20014;-65
2021/04/14 10:38:34;;;;;;;0.35;0.20;;;;;;;22.43;28.98;94779.16;6097560;23;20010;-65
2021/04/14 10:40:59;;;;;;;0.20;0.20;;;;;;;22.40;29.19;94785.75;6098144;23;20031;-65
2021/04/14 10:43:26;;;;;;;0.20;0.20;;;;;;;22.39;29.31;94783.34;6122314;23;20017;-65
2021/04/14 10:46:03;;;;;;;0.25;0.25;;;;;;;22.42;29.03;94766.94;6074943;23;20006;-66
2021/04/14 10:48:31;;;;;;;0.20;0.20;;;;;;;22.41;29.26;94768.03;6099375;23;20006;-65
2021/04/14 10:51:09;;;;;;;0.20;0.20;;;;;;;22.44;29.14;94770.13;6075217;23;20010;-66
2021/04/14 10:53:36;;;;;;;0.20;0.20;;;;;;;22.40;29.29;94758.47;6076544;23;20002;-66
2021/04/14 10:56:11;;;;;;;0.30;0.20;;;;;;;22.43;29.29;94769.34;6123620;23;20002;-65
2021/04/14 10:58:37;;;;;;;0.25;0.25;;;;;;;22.42;29.19;94766.94;6075623;23;20084;-65
2021/04/14 11:01:13;;;;;;;0.20;0.20;;;;;;;22.40;29.03;94759.25;6097782;23;20064;-65
2021/04/14 11:03:45;;;;;;;0.20;0.20;;;;;;;22.45;28.96;94761.13;6074971;23;19997;-66
2021/04/14 11:06:11;;;;;;;0.20;0.20;;;;;;;22.42;29.34;94756.34;6124089;23;20025;-66
2021/04/14 11:08:37;;;;;;;0.50;0.30;;;;;;;22.41;29.10;94749.47;6098735;23;20038;-66
2021/04/14 11:11:02;;;;;;;0.47;0.30;;;;;;;22.43;29.21;94752.66;6073911;23;20006;-65
2021/04/14 11:13:29;;;;;;;0.32;0.20;;;;;;;22.43;29.05;94748.13;6098299;23;20001;-65
2021/04/14 11:15:55;;;;;;;0.20;0.20;;;;;;;22.43;29.22;94750.00;6121511;23;20002;-65
2021/04/14 11:18:34;;;;;;;0.20;0.20;;;;;;;22.45;29.34;94745.22;6098217;23;20006;-66
2021/04/14 11:21:08;;;;;;;0.20;0.20;;;;;;;22.40;29.29;94737.28;6075318;23;20049;-65
2021/04/14 11:23:37;;;;;;;0.20;0.20;;;;;;;22.44;29.10;94744.41;6123369;23;20010;-66
2021/04/14 11:26:04;;;;;;;0.20;0.20;;;;;;;22.43;29.30;94736.75;6074825;23;20006;-65
2021/04/14 11:28:52;;;;;;;0.20;0.20;;;;;;;22.47;29.05;94740.47;6122824;23;20035;-66
2021/04/14 11:31:39;;;;;;;0.20;0.20;;;;;;;22.47;29.20;94748.41;6096063;23;20057;-65
2021/04/14 11:34:19;;;;;;;0.20;0.20;;;;;;;22.47;28.83;94737.81;6097872;23;20006;-65
2021/04/14 11:36:56;;;;;;;0.20;0.20;;;;;;;22.46;29.13;94746.81;6099063;23;20088;-65
2021/04/14 11:39:22;;;;;;;0.20;0.20;;;;;;;22.42;29.31;94737.78;6122681;23;20248;-66
2021/04/14 11:41:50;;;;;;;1.20;0.30;;;;;;;22.42;29.00;94737.78;6122852;23;20088;-66
2021/04/14 11:44:45;;;;;;;0.20;0.20;;;;;;;22.43;29.38;94723.50;6098488;23;20011;-66